sensor_id;sensor_type;location;lat;lon;timestamp;pressure;altitude;pressure_sealevel;temperature;humidity
79075;BME280;68476;42.710;23.388;2023-09-19T00:00:19;95979.59;;;13.54;80.29
79075;BME280;68476;42.710;23.388;2023-09-19T00:02:51;95976.75;;;13.49;80.94
79075;BME280;68476;42.710;23.388;2023-09-19T00:05:17;95987.09;;;13.59;80.39
79075;BME280;68476;42.710;23.388;2023-09-19T00:07:42;95996.41;;;13.58;80.68
79075;BME280;68476;42.710;23.388;2023-09-19T00:10:07;95991.59;;;13.53;80.36
79075;BME280;68476;42.710;23.388;2023-09-19T00:12:35;95984.81;;;13.44;81.13
79075;BME280;68476;42.710;23.388;2023-09-19T00:15:00;95979.44;;;13.25;82.21
79075;BME280;68476;42.710;23.388;2023-09-19T00:17:27;95989.66;;;13.30;82.19
79075;BME280;68476;42.710;23.388;2023-09-19T00:19:55;95983.13;;;13.31;82.23
79075;BME280;68476;42.710;23.388;2023-09-19T00:22:21;95980.13;;;13.32;82.42
79075;BME280;68476;42.710;23.388;2023-09-19T00:24:46;95973.69;;;13.26;82.29
79075;BME280;68476;42.710;23.388;2023-09-19T00:27:12;95977.28;;;13.39;81.69
79075;BME280;68476;42.710;23.388;2023-09-19T00:29:37;95971.09;;;13.32;82.43
79075;BME280;68476;42.710;23.388;2023-09-19T00:32:03;95975.38;;;13.28;82.56
79075;BME280;68476;42.710;23.388;2023-09-19T00:34:30;95979.53;;;13.30;82.55
79075;BME280;68476;42.710;23.388;2023-09-19T00:36:56;95982.50;;;13.29;82.69
79075;BME280;68476;42.710;23.388;2023-09-19T00:39:21;95974.38;;;13.40;82.72
79075;BME280;68476;42.710;23.388;2023-09-19T00:41:47;95972.44;;;13.53;82.21
79075;BME280;68476;42.710;23.388;2023-09-19T00:44:12;95965.44;;;13.69;80.89
79075;BME280;68476;42.710;23.388;2023-09-19T00:46:39;95964.00;;;13.66;81.59
79075;BME280;68476;42.710;23.388;2023-09-19T00:49:04;95957.09;;;13.76;81.55
79075;BME280;68476;42.710;23.388;2023-09-19T00:51:34;95952.09;;;13.73;81.46
79075;BME280;68476;42.710;23.388;2023-09-19T00:54:01;95946.84;;;13.71;81.08
79075;BME280;68476;42.710;23.388;2023-09-19T00:56:28;95960.19;;;13.67;81.33
79075;BME280;68476;42.710;23.388;2023-09-19T00:58:53;95960.19;;;13.55;82.34
79075;BME280;68476;42.710;23.388;2023-09-19T01:01:19;95968.38;;;13.32;82.55
79075;BME280;68476;42.710;23.388;2023-09-19T01:03:46;95959.78;;;13.16;83.60
79075;BME280;68476;42.710;23.388;2023-09-19T01:06:11;95962.72;;;13.03;84.23
79075;BME280;68476;42.710;23.388;2023-09-19T01:08:37;95959.47;;;12.94;84.96
79075;BME280;68476;42.710;23.388;2023-09-19T01:11:11;95964.38;;;12.92;84.96
79075;BME280;68476;42.710;23.388;2023-09-19T01:21:59;95959.81;;;13.28;83.93
79075;BME280;68476;42.710;23.388;2023-09-19T01:30:17;95970.78;;;12.86;85.58
79075;BME280;68476;42.710;23.388;2023-09-19T01:32:44;95969.25;;;13.02;84.70
79075;BME280;68476;42.710;23.388;2023-09-19T01:35:11;95977.81;;;13.05;84.62
79075;BME280;68476;42.710;23.388;2023-09-19T01:37:38;95962.91;;;12.89;85.56
79075;BME280;68476;42.710;23.388;2023-09-19T01:40:04;95961.38;;;12.82;85.50
79075;BME280;68476;42.710;23.388;2023-09-19T01:43:27;95960.97;;;12.66;86.67
79075;BME280;68476;42.710;23.388;2023-09-19T01:46:02;95960.22;;;12.59;87.01
79075;BME280;68476;42.710;23.388;2023-09-19T01:51:09;95953.84;;;12.65;85.87
79075;BME280;68476;42.710;23.388;2023-09-19T01:54:02;95966.53;;;12.59;86.75
79075;BME280;68476;42.710;23.388;2023-09-19T01:56:47;95959.03;;;12.55;87.39
79075;BME280;68476;42.710;23.388;2023-09-19T01:59:19;95956.50;;;12.53;87.52
79075;BME280;68476;42.710;23.388;2023-09-19T02:01:49;95963.34;;;12.62;87.07
79075;BME280;68476;42.710;23.388;2023-09-19T02:04:15;95961.56;;;12.68;86.23
79075;BME280;68476;42.710;23.388;2023-09-19T02:06:41;95973.94;;;12.71;86.41
79075;BME280;68476;42.710;23.388;2023-09-19T02:09:06;95979.16;;;12.72;86.13
79075;BME280;68476;42.710;23.388;2023-09-19T02:11:32;95975.59;;;12.72;86.65
79075;BME280;68476;42.710;23.388;2023-09-19T02:13:57;95975.09;;;12.63;86.70
79075;BME280;68476;42.710;23.388;2023-09-19T02:16:24;95970.56;;;12.57;87.37
79075;BME280;68476;42.710;23.388;2023-09-19T02:18:50;95962.81;;;12.54;87.49
79075;BME280;68476;42.710;23.388;2023-09-19T02:21:16;95963.53;;;12.49;87.64
79075;BME280;68476;42.710;23.388;2023-09-19T02:23:44;95966.78;;;12.39;87.62
79075;BME280;68476;42.710;23.388;2023-09-19T02:26:09;95963.63;;;12.42;87.77
79075;BME280;68476;42.710;23.388;2023-09-19T02:28:37;95964.50;;;12.36;87.84
79075;BME280;68476;42.710;23.388;2023-09-19T02:31:03;95969.53;;;12.39;87.99
79075;BME280;68476;42.710;23.388;2023-09-19T02:33:31;95964.06;;;12.39;87.61
79075;BME280;68476;42.710;23.388;2023-09-19T02:35:58;95954.44;;;12.37;88.37
79075;BME280;68476;42.710;23.388;2023-09-19T02:38:27;95951.75;;;12.48;87.15
79075;BME280;68476;42.710;23.388;2023-09-19T02:40:53;95957.81;;;12.51;87.18
79075;BME280;68476;42.710;23.388;2023-09-19T02:43:20;95947.56;;;12.46;87.33
79075;BME280;68476;42.710;23.388;2023-09-19T02:45:47;95940.22;;;12.46;87.08
79075;BME280;68476;42.710;23.388;2023-09-19T02:48:14;95944.16;;;12.51;87.29
79075;BME280;68476;42.710;23.388;2023-09-19T02:50:40;95934.41;;;12.55;87.20
79075;BME280;68476;42.710;23.388;2023-09-19T02:53:06;95937.38;;;12.53;87.27
79075;BME280;68476;42.710;23.388;2023-09-19T02:55:31;95933.91;;;12.46;87.49
79075;BME280;68476;42.710;23.388;2023-09-19T02:57:57;95932.69;;;12.42;87.37
79075;BME280;68476;42.710;23.388;2023-09-19T03:00:23;95932.34;;;12.38;88.21
79075;BME280;68476;42.710;23.388;2023-09-19T03:02:55;95934.25;;;12.38;87.98
79075;BME280;68476;42.710;23.388;2023-09-19T03:05:22;95928.16;;;12.36;88.30
79075;BME280;68476;42.710;23.388;2023-09-19T03:07:49;95934.59;;;12.41;88.04
79075;BME280;68476;42.710;23.388;2023-09-19T03:10:16;95925.81;;;12.39;88.12
79075;BME280;68476;42.710;23.388;2023-09-19T03:12:44;95920.34;;;12.39;88.13
79075;BME280;68476;42.710;23.388;2023-09-19T03:15:09;95930.34;;;12.45;87.73
79075;BME280;68476;42.710;23.388;2023-09-19T03:17:35;95935.59;;;12.47;87.71
79075;BME280;68476;42.710;23.388;2023-09-19T03:20:02;95920.50;;;12.26;88.38
79075;BME280;68476;42.710;23.388;2023-09-19T03:22:27;95923.41;;;12.31;88.46
79075;BME280;68476;42.710;23.388;2023-09-19T03:24:53;95914.59;;;12.29;88.38
79075;BME280;68476;42.710;23.388;2023-09-19T03:27:19;95916.88;;;12.32;88.33
79075;BME280;68476;42.710;23.388;2023-09-19T03:29:46;95895.03;;;12.13;88.62
79075;BME280;68476;42.710;23.388;2023-09-19T03:32:11;95906.91;;;12.07;89.06
79075;BME280;68476;42.710;23.388;2023-09-19T03:34:38;95911.75;;;12.05;89.28
79075;BME280;68476;42.710;23.388;2023-09-19T03:37:11;95913.75;;;11.98;89.55
79075;BME280;68476;42.710;23.388;2023-09-19T03:39:36;95921.25;;;12.02;89.59
79075;BME280;68476;42.710;23.388;2023-09-19T03:42:02;95925.03;;;12.01;89.74
79075;BME280;68476;42.710;23.388;2023-09-19T03:44:29;95917.91;;;12.00;89.98
79075;BME280;68476;42.710;23.388;2023-09-19T03:46:55;95924.59;;;12.05;89.56
79075;BME280;68476;42.710;23.388;2023-09-19T03:49:21;95928.88;;;12.12;89.25
79075;BME280;68476;42.710;23.388;2023-09-19T03:51:47;95932.38;;;12.20;88.76
79075;BME280;68476;42.710;23.388;2023-09-19T03:54:12;95929.50;;;12.14;88.77
79075;BME280;68476;42.710;23.388;2023-09-19T03:56:38;95935.03;;;12.08;89.40
79075;BME280;68476;42.710;23.388;2023-09-19T03:59:03;95924.97;;;12.08;89.00
79075;BME280;68476;42.710;23.388;2023-09-19T04:01:30;95937.84;;;12.20;88.78
79075;BME280;68476;42.710;23.388;2023-09-19T04:03:58;95940.13;;;12.23;88.53
79075;BME280;68476;42.710;23.388;2023-09-19T04:06:23;95937.41;;;12.23;88.67
79075;BME280;68476;42.710;23.388;2023-09-19T04:08:49;95931.16;;;12.15;88.67
79075;BME280;68476;42.710;23.388;2023-09-19T04:11:14;95954.97;;;12.27;88.96
79075;BME280;68476;42.710;23.388;2023-09-19T04:13:39;95943.06;;;12.21;88.79
79075;BME280;68476;42.710;23.388;2023-09-19T04:16:05;95947.19;;;12.12;89.01
79075;BME280;68476;42.710;23.388;2023-09-19T04:18:32;95939.50;;;12.21;88.66
79075;BME280;68476;42.710;23.388;2023-09-19T04:20:59;95954.06;;;12.33;88.03
79075;BME280;68476;42.710;23.388;2023-09-19T04:23:28;95954.34;;;12.43;87.60
79075;BME280;68476;42.710;23.388;2023-09-19T04:25:53;95955.69;;;12.53;87.48
79075;BME280;68476;42.710;23.388;2023-09-19T04:28:19;95951.56;;;12.62;86.95
79075;BME280;68476;42.710;23.388;2023-09-19T04:30:44;95948.63;;;12.75;86.22
79075;BME280;68476;42.710;23.388;2023-09-19T04:33:09;95939.50;;;12.82;85.66
79075;BME280;68476;42.710;23.388;2023-09-19T04:35:35;95947.47;;;12.83;85.81
79075;BME280;68476;42.710;23.388;2023-09-19T04:38:00;95944.47;;;12.85;85.51
79075;BME280;68476;42.710;23.388;2023-09-19T04:40:26;95950.69;;;12.92;85.36
79075;BME280;68476;42.710;23.388;2023-09-19T04:42:58;95950.81;;;12.97;85.26
79075;BME280;68476;42.710;23.388;2023-09-19T04:45:24;95949.41;;;13.06;85.05
79075;BME280;68476;42.710;23.388;2023-09-19T04:47:50;95950.31;;;12.88;86.12
79075;BME280;68476;42.710;23.388;2023-09-19T04:50:15;95948.56;;;13.06;85.08
79075;BME280;68476;42.710;23.388;2023-09-19T04:52:43;95943.81;;;13.01;85.29
79075;BME280;68476;42.710;23.388;2023-09-19T04:55:13;95939.31;;;13.19;84.83
79075;BME280;68476;42.710;23.388;2023-09-19T04:57:51;95938.63;;;13.35;83.64
79075;BME280;68476;42.710;23.388;2023-09-19T05:00:19;95937.44;;;13.55;82.46
79075;BME280;68476;42.710;23.388;2023-09-19T05:02:51;95928.97;;;13.80;81.87
79075;BME280;68476;42.710;23.388;2023-09-19T05:05:17;95934.22;;;13.82;82.03
79075;BME280;68476;42.710;23.388;2023-09-19T05:07:45;95935.41;;;13.74;82.11
79075;BME280;68476;42.710;23.388;2023-09-19T05:10:10;95927.31;;;13.79;81.38
79075;BME280;68476;42.710;23.388;2023-09-19T05:12:37;95929.31;;;13.84;81.86
79075;BME280;68476;42.710;23.388;2023-09-19T05:15:06;95936.34;;;13.80;82.20
79075;BME280;68476;42.710;23.388;2023-09-19T05:17:33;95935.22;;;14.05;80.97
79075;BME280;68476;42.710;23.388;2023-09-19T05:19:59;95934.97;;;14.18;80.21
79075;BME280;68476;42.710;23.388;2023-09-19T05:22:29;95921.94;;;14.25;80.25
79075;BME280;68476;42.710;23.388;2023-09-19T05:24:54;95925.59;;;14.43;79.67
79075;BME280;68476;42.710;23.388;2023-09-19T05:27:20;95918.44;;;14.42;78.45
79075;BME280;68476;42.710;23.388;2023-09-19T05:29:46;95923.69;;;14.60;78.22
79075;BME280;68476;42.710;23.388;2023-09-19T05:32:12;95927.34;;;14.78;77.13
79075;BME280;68476;42.710;23.388;2023-09-19T05:34:38;95924.38;;;14.97;77.96
79075;BME280;68476;42.710;23.388;2023-09-19T05:37:04;95916.38;;;15.46;74.56
79075;BME280;68476;42.710;23.388;2023-09-19T05:39:33;95918.22;;;15.40;74.53
79075;BME280;68476;42.710;23.388;2023-09-19T05:41:58;95914.75;;;15.28;74.94
79075;BME280;68476;42.710;23.388;2023-09-19T05:44:25;95912.28;;;15.49;75.01
79075;BME280;68476;42.710;23.388;2023-09-19T05:46:51;95905.88;;;15.99;73.20
79075;BME280;68476;42.710;23.388;2023-09-19T05:49:17;95902.75;;;15.51;74.45
79075;BME280;68476;42.710;23.388;2023-09-19T05:51:43;95902.75;;;15.91;72.74
79075;BME280;68476;42.710;23.388;2023-09-19T05:54:08;95898.31;;;15.90;72.23
79075;BME280;68476;42.710;23.388;2023-09-19T05:56:34;95898.31;;;15.90;72.91
79075;BME280;68476;42.710;23.388;2023-09-19T05:58:59;95902.09;;;16.50;70.70
79075;BME280;68476;42.710;23.388;2023-09-19T06:01:25;95904.50;;;16.46;70.43
79075;BME280;68476;42.710;23.388;2023-09-19T06:03:50;95887.63;;;16.10;71.74
79075;BME280;68476;42.710;23.388;2023-09-19T06:06:18;95899.75;;;16.14;71.59
79075;BME280;68476;42.710;23.388;2023-09-19T06:08:44;95894.06;;;16.76;69.98
79075;BME280;68476;42.710;23.388;2023-09-19T06:11:10;95891.56;;;16.97;69.42
79075;BME280;68476;42.710;23.388;2023-09-19T06:13:36;95894.03;;;16.98;68.46
79075;BME280;68476;42.710;23.388;2023-09-19T06:16:04;95880.34;;;17.08;68.10
79075;BME280;68476;42.710;23.388;2023-09-19T06:18:31;95881.06;;;17.26;67.73
79075;BME280;68476;42.710;23.388;2023-09-19T06:20:59;95887.44;;;17.37;67.22
79075;BME280;68476;42.710;23.388;2023-09-19T06:23:25;95886.84;;;17.30;67.04
79075;BME280;68476;42.710;23.388;2023-09-19T06:25:52;95874.97;;;17.67;66.86
79075;BME280;68476;42.710;23.388;2023-09-19T06:28:18;95875.22;;;17.60;66.04
79075;BME280;68476;42.710;23.388;2023-09-19T06:30:49;95876.41;;;17.75;65.00
79075;BME280;68476;42.710;23.388;2023-09-19T06:33:15;95874.56;;;17.96;64.40
79075;BME280;68476;42.710;23.388;2023-09-19T06:35:40;95867.63;;;17.88;64.16
79075;BME280;68476;42.710;23.388;2023-09-19T06:38:07;95877.22;;;17.27;66.39
79075;BME280;68476;42.710;23.388;2023-09-19T06:40:33;95860.94;;;17.68;64.59
79075;BME280;68476;42.710;23.388;2023-09-19T06:42:59;95871.94;;;18.16;63.40
79075;BME280;68476;42.710;23.388;2023-09-19T06:45:27;95866.34;;;18.06;63.74
79075;BME280;68476;42.710;23.388;2023-09-19T06:47:53;95878.56;;;17.67;64.54
79075;BME280;68476;42.710;23.388;2023-09-19T06:50:21;95878.38;;;18.58;62.37
79075;BME280;68476;42.710;23.388;2023-09-19T06:52:53;95882.63;;;18.02;63.02
79075;BME280;68476;42.710;23.388;2023-09-19T06:55:21;95889.28;;;18.07;63.61
79075;BME280;68476;42.710;23.388;2023-09-19T06:57:49;95879.41;;;18.21;63.11
79075;BME280;68476;42.710;23.388;2023-09-19T07:00:15;95882.69;;;18.23;62.53
79075;BME280;68476;42.710;23.388;2023-09-19T07:05:35;95890.25;;;17.90;62.97
79075;BME280;68476;42.710;23.388;2023-09-19T07:08:08;95890.50;;;18.42;61.78
79075;BME280;68476;42.710;23.388;2023-09-19T07:10:36;95880.06;;;18.54;59.99
79075;BME280;68476;42.710;23.388;2023-09-19T07:13:06;95886.59;;;18.22;61.58
79075;BME280;68476;42.710;23.388;2023-09-19T07:15:36;95880.03;;;18.49;60.88
79075;BME280;68476;42.710;23.388;2023-09-19T07:18:04;95883.56;;;18.34;61.57
79075;BME280;68476;42.710;23.388;2023-09-19T07:20:31;95883.94;;;18.69;59.42
79075;BME280;68476;42.710;23.388;2023-09-19T07:22:58;95884.44;;;18.45;60.16
79075;BME280;68476;42.710;23.388;2023-09-19T07:25:25;95885.38;;;18.87;59.92
79075;BME280;68476;42.710;23.388;2023-09-19T07:27:51;95874.56;;;19.73;57.26
79075;BME280;68476;42.710;23.388;2023-09-19T07:30:16;95872.66;;;19.48;58.02
79075;BME280;68476;42.710;23.388;2023-09-19T07:32:42;95876.81;;;19.19;59.00
79075;BME280;68476;42.710;23.388;2023-09-19T07:35:08;95872.38;;;19.54;57.98
79075;BME280;68476;42.710;23.388;2023-09-19T07:37:34;95873.97;;;19.76;57.17
79075;BME280;68476;42.710;23.388;2023-09-19T07:40:00;95889.22;;;19.68;57.36
79075;BME280;68476;42.710;23.388;2023-09-19T07:42:35;95866.34;;;19.27;57.70
79075;BME280;68476;42.710;23.388;2023-09-19T07:45:04;95880.72;;;19.03;58.71
79075;BME280;68476;42.710;23.388;2023-09-19T07:47:30;95881.22;;;19.56;57.26
79075;BME280;68476;42.710;23.388;2023-09-19T07:49:58;95889.25;;;18.96;58.69
79075;BME280;68476;42.710;23.388;2023-09-19T07:52:24;95886.75;;;19.46;57.27
79075;BME280;68476;42.710;23.388;2023-09-19T07:54:49;95880.06;;;19.78;56.79
79075;BME280;68476;42.710;23.388;2023-09-19T07:57:15;95881.63;;;20.21;55.18
79075;BME280;68476;42.710;23.388;2023-09-19T07:59:41;95886.06;;;20.22;55.21
79075;BME280;68476;42.710;23.388;2023-09-19T08:02:08;95879.00;;;20.45;54.73
79075;BME280;68476;42.710;23.388;2023-09-19T08:04:44;95879.69;;;20.21;54.75
79075;BME280;68476;42.710;23.388;2023-09-19T08:07:11;95883.81;;;20.24;54.70
79075;BME280;68476;42.710;23.388;2023-09-19T08:09:37;95884.28;;;20.41;54.20
79075;BME280;68476;42.710;23.388;2023-09-19T08:12:04;95871.63;;;20.30;54.80
79075;BME280;68476;42.710;23.388;2023-09-19T08:14:30;95861.31;;;20.41;54.59
79075;BME280;68476;42.710;23.388;2023-09-19T08:16:58;95866.16;;;20.75;53.64
79075;BME280;68476;42.710;23.388;2023-09-19T08:19:25;95861.16;;;20.22;54.70
79075;BME280;68476;42.710;23.388;2023-09-19T08:21:55;95861.81;;;19.98;55.25
79075;BME280;68476;42.710;23.388;2023-09-19T08:24:29;95870.56;;;20.15;54.71
79075;BME280;68476;42.710;23.388;2023-09-19T08:26:56;95850.03;;;20.27;54.15
79075;BME280;68476;42.710;23.388;2023-09-19T08:29:25;95851.19;;;20.21;54.47
79075;BME280;68476;42.710;23.388;2023-09-19T08:31:56;95852.81;;;20.77;53.24
79075;BME280;68476;42.710;23.388;2023-09-19T08:34:23;95848.28;;;20.91;52.71
79075;BME280;68476;42.710;23.388;2023-09-19T08:36:53;95853.34;;;20.84;53.19
79075;BME280;68476;42.710;23.388;2023-09-19T08:39:22;95856.44;;;21.42;52.22
79075;BME280;68476;42.710;23.388;2023-09-19T08:41:48;95850.72;;;20.98;52.63
79075;BME280;68476;42.710;23.388;2023-09-19T08:44:13;95851.69;;;21.47;51.53
79075;BME280;68476;42.710;23.388;2023-09-19T08:46:41;95850.41;;;21.39;51.80
79075;BME280;68476;42.710;23.388;2023-09-19T08:49:33;95849.63;;;20.99;52.89
79075;BME280;68476;42.710;23.388;2023-09-19T08:52:28;95849.34;;;21.30;51.76
79075;BME280;68476;42.710;23.388;2023-09-19T08:54:59;95843.59;;;20.92;52.25
79075;BME280;68476;42.710;23.388;2023-09-19T08:57:33;95850.88;;;20.72;53.42
79075;BME280;68476;42.710;23.388;2023-09-19T09:00:02;95843.28;;;20.99;52.66
79075;BME280;68476;42.710;23.388;2023-09-19T09:02:30;95839.81;;;21.42;51.66
79075;BME280;68476;42.710;23.388;2023-09-19T09:04:59;95841.75;;;21.12;51.56
79075;BME280;68476;42.710;23.388;2023-09-19T09:07:25;95829.41;;;21.87;50.15
79075;BME280;68476;42.710;23.388;2023-09-19T09:09:52;95834.00;;;21.73;50.17
79075;BME280;68476;42.710;23.388;2023-09-19T09:12:18;95828.22;;;21.93;49.96
79075;BME280;68476;42.710;23.388;2023-09-19T09:14:47;95826.41;;;21.54;50.38
79075;BME280;68476;42.710;23.388;2023-09-19T09:17:16;95825.91;;;22.25;48.86
79075;BME280;68476;42.710;23.388;2023-09-19T09:19:48;95820.94;;;22.46;48.83
79075;BME280;68476;42.710;23.388;2023-09-19T09:22:13;95817.31;;;22.65;48.24
79075;BME280;68476;42.710;23.388;2023-09-19T09:24:52;95819.94;;;22.56;48.02
79075;BME280;68476;42.710;23.388;2023-09-19T09:27:19;95818.94;;;23.04;47.12
79075;BME280;68476;42.710;23.388;2023-09-19T09:29:49;95813.59;;;23.41;46.09
79075;BME280;68476;42.710;23.388;2023-09-19T09:32:28;95804.28;;;23.78;44.88
79075;BME280;68476;42.710;23.388;2023-09-19T09:37:20;95798.00;;;23.73;44.86
79075;BME280;68476;42.710;23.388;2023-09-19T09:39:55;95799.97;;;22.54;47.87
79075;BME280;68476;42.710;23.388;2023-09-19T09:42:35;95795.72;;;23.89;45.09
79075;BME280;68476;42.710;23.388;2023-09-19T09:45:21;95776.22;;;24.81;43.19
79075;BME280;68476;42.710;23.388;2023-09-19T09:47:59;95788.66;;;25.29;42.01
79075;BME280;68476;42.710;23.388;2023-09-19T09:50:35;95785.06;;;25.29;41.26
79075;BME280;68476;42.710;23.388;2023-09-19T09:53:26;95784.19;;;24.60;42.94
79075;BME280;68476;42.710;23.388;2023-09-19T09:56:00;95775.13;;;24.18;43.43
79075;BME280;68476;42.710;23.388;2023-09-19T09:58:27;95775.31;;;23.79;44.13
79075;BME280;68476;42.710;23.388;2023-09-19T10:01:00;95774.28;;;25.04;42.20
79075;BME280;68476;42.710;23.388;2023-09-19T10:03:40;95770.56;;;23.38;45.23
79075;BME280;68476;42.710;23.388;2023-09-19T10:06:11;95769.34;;;23.72;44.56
79075;BME280;68476;42.710;23.388;2023-09-19T10:09:05;95775.41;;;24.30;43.44
79075;BME280;68476;42.710;23.388;2023-09-19T10:11:44;95764.81;;;23.62;45.52
79075;BME280;68476;42.710;23.388;2023-09-19T10:14:12;95766.47;;;23.77;45.26
79075;BME280;68476;42.710;23.388;2023-09-19T10:16:46;95767.03;;;24.44;43.53
79075;BME280;68476;42.710;23.388;2023-09-19T10:19:16;95766.97;;;24.58;43.66
79075;BME280;68476;42.710;23.388;2023-09-19T10:21:47;95760.06;;;24.55;43.71
79075;BME280;68476;42.710;23.388;2023-09-19T10:24:13;95769.63;;;24.77;43.59
79075;BME280;68476;42.710;23.388;2023-09-19T10:26:41;95755.91;;;25.03;42.94
79075;BME280;68476;42.710;23.388;2023-09-19T10:29:09;95763.56;;;24.75;43.09
79075;BME280;68476;42.710;23.388;2023-09-19T10:31:36;95759.56;;;24.90;43.26
79075;BME280;68476;42.710;23.388;2023-09-19T10:34:06;95754.78;;;25.13;42.66
79075;BME280;68476;42.710;23.388;2023-09-19T10:36:36;95746.19;;;24.41;43.76
79075;BME280;68476;42.710;23.388;2023-09-19T10:39:04;95745.44;;;25.41;41.95
79075;BME280;68476;42.710;23.388;2023-09-19T10:41:34;95747.56;;;24.89;42.29
79075;BME280;68476;42.710;23.388;2023-09-19T10:44:04;95741.28;;;24.75;43.00
79075;BME280;68476;42.710;23.388;2023-09-19T10:46:32;95740.13;;;24.99;43.13
79075;BME280;68476;42.710;23.388;2023-09-19T10:49:01;95742.81;;;25.13;42.58
79075;BME280;68476;42.710;23.388;2023-09-19T10:51:30;95744.03;;;24.38;44.25
79075;BME280;68476;42.710;23.388;2023-09-19T10:54:11;95741.06;;;24.94;42.77
79075;BME280;68476;42.710;23.388;2023-09-19T10:56:42;95732.59;;;24.76;43.19
79075;BME280;68476;42.710;23.388;2023-09-19T10:59:11;95737.25;;;24.67;43.48
79075;BME280;68476;42.710;23.388;2023-09-19T11:01:43;95732.19;;;24.33;44.54
79075;BME280;68476;42.710;23.388;2023-09-19T11:07:11;95725.28;;;24.30;44.03
79075;BME280;68476;42.710;23.388;2023-09-19T11:22:09;95708.06;;;24.87;42.98
79075;BME280;68476;42.710;23.388;2023-09-19T11:26:47;95716.22;;;25.38;41.77
79075;BME280;68476;42.710;23.388;2023-09-19T11:29:30;95699.16;;;25.80;39.89
79075;BME280;68476;42.710;23.388;2023-09-19T11:31:57;95700.63;;;25.77;40.51
79075;BME280;68476;42.710;23.388;2023-09-19T11:42:45;95685.72;;;25.99;39.97
79075;BME280;68476;42.710;23.388;2023-09-19T11:48:23;95669.28;;;28.62;35.33
79075;BME280;68476;42.710;23.388;2023-09-19T11:50:52;95661.03;;;28.23;36.08
79075;BME280;68476;42.710;23.388;2023-09-19T11:53:18;95659.38;;;27.71;36.33
79075;BME280;68476;42.710;23.388;2023-09-19T11:55:45;95656.47;;;25.88;39.61
79075;BME280;68476;42.710;23.388;2023-09-19T11:58:12;95650.31;;;26.44;38.62
79075;BME280;68476;42.710;23.388;2023-09-19T12:00:40;95653.13;;;27.95;35.92
79075;BME280;68476;42.710;23.388;2023-09-19T12:03:11;95641.00;;;28.12;34.90
79075;BME280;68476;42.710;23.388;2023-09-19T12:05:37;95657.00;;;27.82;36.18
79075;BME280;68476;42.710;23.388;2023-09-19T12:08:07;95650.38;;;28.71;34.13
79075;BME280;68476;42.710;23.388;2023-09-19T12:10:45;95642.25;;;32.37;29.05
79075;BME280;68476;42.710;23.388;2023-09-19T12:13:10;95644.19;;;32.17;29.26
79075;BME280;68476;42.710;23.388;2023-09-19T12:15:40;95619.91;;;35.29;24.80
79075;BME280;68476;42.710;23.388;2023-09-19T12:18:25;95617.66;;;35.94;24.54
79075;BME280;68476;42.710;23.388;2023-09-19T12:20:51;95621.75;;;34.46;25.55
79075;BME280;68476;42.710;23.388;2023-09-19T12:23:17;95608.88;;;32.39;28.15
79075;BME280;68476;42.710;23.388;2023-09-19T12:25:43;95616.19;;;33.69;26.70
79075;BME280;68476;42.710;23.388;2023-09-19T12:28:15;95620.09;;;33.38;26.61
79075;BME280;68476;42.710;23.388;2023-09-19T12:30:47;95602.72;;;34.74;25.43
79075;BME280;68476;42.710;23.388;2023-09-19T12:33:19;95605.59;;;32.37;27.69
79075;BME280;68476;42.710;23.388;2023-09-19T12:35:51;95607.84;;;34.03;25.29
79075;BME280;68476;42.710;23.388;2023-09-19T12:38:27;95613.47;;;33.30;26.23
79075;BME280;68476;42.710;23.388;2023-09-19T12:40:55;95596.88;;;34.59;25.40
79075;BME280;68476;42.710;23.388;2023-09-19T12:43:22;95591.16;;;35.27;24.24
79075;BME280;68476;42.710;23.388;2023-09-19T12:45:48;95590.75;;;37.80;21.49
79075;BME280;68476;42.710;23.388;2023-09-19T12:48:24;95587.88;;;35.67;23.32
79075;BME280;68476;42.710;23.388;2023-09-19T12:51:10;95590.97;;;35.09;24.46
79075;BME280;68476;42.710;23.388;2023-09-19T12:53:39;95594.91;;;34.33;25.33
79075;BME280;68476;42.710;23.388;2023-09-19T12:56:10;95588.28;;;35.20;24.01
79075;BME280;68476;42.710;23.388;2023-09-19T12:58:57;95589.03;;;36.95;21.77
79075;BME280;68476;42.710;23.388;2023-09-19T13:01:26;95592.84;;;33.49;25.99
79075;BME280;68476;42.710;23.388;2023-09-19T13:06:46;95573.09;;;34.33;25.21
79075;BME280;68476;42.710;23.388;2023-09-19T13:09:13;95574.66;;;34.92;24.51
79075;BME280;68476;42.710;23.388;2023-09-19T13:11:40;95557.09;;;33.87;26.08
79075;BME280;68476;42.710;23.388;2023-09-19T13:14:15;95562.66;;;34.71;24.97
79075;BME280;68476;42.710;23.388;2023-09-19T13:17:07;95563.53;;;37.24;22.32
79075;BME280;68476;42.710;23.388;2023-09-19T13:19:48;95556.81;;;36.48;22.51
79075;BME280;68476;42.710;23.388;2023-09-19T13:22:40;95553.69;;;35.00;24.17
79075;BME280;68476;42.710;23.388;2023-09-19T13:25:18;95547.19;;;34.99;24.52
79075;BME280;68476;42.710;23.388;2023-09-19T13:27:48;95556.91;;;34.98;24.58
79075;BME280;68476;42.710;23.388;2023-09-19T13:30:16;95544.78;;;33.99;25.61
79075;BME280;68476;42.710;23.388;2023-09-19T13:32:42;95533.59;;;32.63;27.23
79075;BME280;68476;42.710;23.388;2023-09-19T13:35:09;95542.69;;;32.53;27.93
79075;BME280;68476;42.710;23.388;2023-09-19T13:37:35;95538.78;;;32.02;28.03
79075;BME280;68476;42.710;23.388;2023-09-19T13:40:05;95535.34;;;35.28;23.65
79075;BME280;68476;42.710;23.388;2023-09-19T13:42:31;95539.31;;;35.20;24.10
79075;BME280;68476;42.710;23.388;2023-09-19T13:44:57;95541.88;;;33.69;26.17
79075;BME280;68476;42.710;23.388;2023-09-19T13:47:22;95528.88;;;34.52;25.21
79075;BME280;68476;42.710;23.388;2023-09-19T13:49:50;95529.09;;;34.70;24.54
79075;BME280;68476;42.710;23.388;2023-09-19T13:52:19;95534.00;;;34.08;25.59